createdAt,value
2022-11-09T00:01:42.801Z,87.55
2022-11-09T00:04:10.425Z,87.43
2022-11-09T00:06:37.561Z,87.66
2022-11-09T00:09:07.751Z,88.12
2022-11-09T00:11:35.653Z,87.82
2022-11-09T00:14:02.203Z,88.23
2022-11-09T00:16:28.749Z,88.10
2022-11-09T00:18:56.084Z,88.21
2022-11-09T00:21:24.694Z,88.26
2022-11-09T00:23:51.689Z,88.26
2022-11-09T00:26:19.768Z,88.63
2022-11-09T00:28:48.016Z,88.71
2022-11-09T00:31:23.008Z,88.49
2022-11-09T00:33:53.954Z,88.14
2022-11-09T00:36:21.632Z,88.56
2022-11-09T00:39:00.663Z,88.94
2022-11-09T00:41:28.255Z,88.67
2022-11-09T00:43:54.829Z,89.12
2022-11-09T00:46:21.820Z,89.01
2022-11-09T00:48:48.465Z,88.31
2022-11-09T00:51:15.175Z,88.86
2022-11-09T00:53:42.733Z,88.38
2022-11-09T00:56:13.114Z,88.47
2022-11-09T00:58:43.568Z,88.91
2022-11-09T01:01:15.919Z,88.81
2022-11-09T01:03:44.097Z,89.04
2022-11-09T01:06:16.030Z,88.71
2022-11-09T01:08:42.514Z,88.83
2022-11-09T01:11:10.094Z,88.69
2022-11-09T01:13:37.578Z,88.39
2022-11-09T01:16:12.194Z,88.66
2022-11-09T01:18:39.781Z,88.63
2022-11-09T01:21:11.000Z,88.95
2022-11-09T01:23:39.427Z,88.85
2022-11-09T01:26:09.140Z,88.84
2022-11-09T01:28:36.350Z,89.10
2022-11-09T01:31:05.456Z,88.98
2022-11-09T01:33:32.735Z,89.27
2022-11-09T01:36:07.494Z,88.79
2022-11-09T01:38:34.037Z,89.03
2022-11-09T01:41:00.635Z,88.35
2022-11-09T01:43:28.073Z,88.73
2022-11-09T01:46:17.934Z,88.85
2022-11-09T01:48:51.644Z,88.51
2022-11-09T01:51:26.540Z,88.81
2022-11-09T01:54:02.012Z,88.79
2022-11-09T01:56:31.549Z,88.89
2022-11-09T01:59:05.769Z,88.99
2022-11-09T02:01:33.665Z,88.64
2022-11-09T02:04:15.289Z,88.34
2022-11-09T02:06:42.023Z,89.21
2022-11-09T02:09:37.645Z,88.71
2022-11-09T02:12:05.155Z,88.42
2022-11-09T02:14:33.945Z,88.81
2022-11-09T02:17:00.479Z,89.02
2022-11-09T02:19:27.622Z,88.77
2022-11-09T02:21:54.189Z,88.61
2022-11-09T02:24:20.733Z,88.39
2022-11-09T02:26:52.094Z,88.45
2022-11-09T02:29:40.667Z,88.90
2022-11-09T02:32:12.578Z,88.66
2022-11-09T02:34:39.099Z,88.56
2022-11-09T02:37:05.902Z,88.37
2022-11-09T02:39:32.970Z,88.29
2022-11-09T02:42:10.185Z,87.98
2022-11-09T02:44:43.636Z,88.22
2022-11-09T02:47:10.194Z,87.90
2022-11-09T02:49:36.817Z,87.60
2022-11-09T02:52:03.620Z,87.27
2022-11-09T02:54:30.161Z,88.51
2022-11-09T02:56:57.370Z,89.81
2022-11-09T02:59:24.068Z,89.69
2022-11-09T03:01:50.627Z,89.24
2022-11-09T03:04:17.242Z,88.16
2022-11-09T03:06:44.196Z,88.17
2022-11-09T03:09:12.058Z,87.74
2022-11-09T03:11:40.343Z,87.34
2022-11-09T03:14:07.343Z,87.55
2022-11-09T03:16:33.842Z,87.49
2022-11-09T03:19:00.343Z,87.38
2022-11-09T03:21:26.837Z,87.85
2022-11-09T03:23:54.217Z,87.34
2022-11-09T03:26:21.689Z,87.30
2022-11-09T03:28:48.291Z,88.05
2022-11-09T03:31:15.231Z,87.58
2022-11-09T03:33:42.177Z,87.70
2022-11-09T03:36:08.985Z,88.04
2022-11-09T03:38:35.806Z,87.90
2022-11-09T03:41:02.700Z,87.76
2022-11-09T03:43:30.141Z,87.28
2022-11-09T03:45:56.925Z,87.13
2022-11-09T03:48:23.834Z,86.97
2022-11-09T03:50:50.371Z,87.74
2022-11-09T03:53:17.148Z,86.80
2022-11-09T03:55:43.836Z,86.25
2022-11-09T03:58:12.773Z,86.52
2022-11-09T04:00:39.348Z,87.33
2022-11-09T04:03:05.863Z,87.44
2022-11-09T04:05:32.389Z,87.50
2022-11-09T04:07:59.673Z,87.40
2022-11-09T04:10:26.868Z,87.42
2022-11-09T04:12:53.783Z,87.73
2022-11-09T04:15:20.444Z,87.67
2022-11-09T04:17:57.958Z,87.34
2022-11-09T04:20:25.850Z,87.38
2022-11-09T04:23:01.425Z,87.65
2022-11-09T04:25:30.030Z,87.15
2022-11-09T04:27:57.547Z,87.54
2022-11-09T04:30:28.060Z,87.95
2022-11-09T04:32:55.803Z,87.42
2022-11-09T04:35:22.682Z,87.47
2022-11-09T04:37:56.218Z,87.85
2022-11-09T04:40:24.389Z,87.67
2022-11-09T04:42:51.195Z,87.21
2022-11-09T04:45:17.718Z,87.57
2022-11-09T04:47:44.300Z,87.56
2022-11-09T04:50:11.328Z,87.54
2022-11-09T04:52:37.810Z,87.70
2022-11-09T04:55:05.256Z,88.13
2022-11-09T04:57:31.809Z,87.82
2022-11-09T04:59:58.316Z,87.60
2022-11-09T05:02:24.822Z,87.00
2022-11-09T05:04:51.306Z,86.68
2022-11-09T05:07:18.148Z,86.63
2022-11-09T05:09:44.732Z,86.92
2022-11-09T05:12:15.058Z,86.67
2022-11-09T05:14:41.550Z,86.69
2022-11-09T05:17:08.864Z,86.52
2022-11-09T05:19:35.477Z,86.54
2022-11-09T05:22:22.111Z,87.27
2022-11-09T05:24:48.693Z,87.74
2022-11-09T05:27:15.223Z,87.64
2022-11-09T05:29:41.721Z,87.58
2022-11-09T05:32:08.374Z,87.01
2022-11-09T05:34:34.895Z,87.31
2022-11-09T05:37:03.641Z,87.53
2022-11-09T05:39:30.478Z,87.15
2022-11-09T05:41:56.968Z,87.29
2022-11-09T05:44:23.620Z,86.51
2022-11-09T05:46:50.121Z,86.56
2022-11-09T05:49:16.619Z,86.44
2022-11-09T05:51:43.107Z,86.42
2022-11-09T05:54:09.696Z,86.24
2022-11-09T05:56:36.248Z,86.50
2022-11-09T05:59:02.763Z,86.56
2022-11-09T06:01:29.304Z,86.68
2022-11-09T06:03:55.845Z,86.98
2022-11-09T06:06:22.388Z,86.21
2022-11-09T06:08:50.067Z,86.46
2022-11-09T06:11:23.122Z,86.15
2022-11-09T06:13:50.982Z,86.20
2022-11-09T06:16:17.580Z,86.48
2022-11-09T06:18:44.104Z,86.39
2022-11-09T06:21:10.957Z,86.65
2022-11-09T06:23:37.476Z,86.35
2022-11-09T06:26:10.049Z,86.74
2022-11-09T06:28:41.141Z,86.94
2022-11-09T06:31:12.151Z,87.15
2022-11-09T06:33:38.666Z,87.57
2022-11-09T06:36:05.646Z,87.50
2022-11-09T06:38:32.716Z,87.20
2022-11-09T06:41:00.006Z,87.22
2022-11-09T06:43:27.234Z,87.41
2022-11-09T06:45:54.370Z,87.31
2022-11-09T06:48:21.761Z,87.88
2022-11-09T06:50:48.411Z,87.96
2022-11-09T06:53:17.100Z,86.88
2022-11-09T06:55:49.930Z,87.09
2022-11-09T06:58:19.549Z,87.33
2022-11-09T07:00:46.904Z,87.25
2022-11-09T07:03:15.031Z,87.32
2022-11-09T07:05:42.077Z,87.42
2022-11-09T07:08:09.402Z,87.26
2022-11-09T07:10:36.109Z,88.48
2022-11-09T07:13:05.598Z,88.42
2022-11-09T07:15:33.365Z,88.31
2022-11-09T07:18:01.662Z,87.08
2022-11-09T07:20:29.185Z,88.12
2022-11-09T07:22:55.970Z,87.72
2022-11-09T07:25:22.816Z,87.70
2022-11-09T07:27:49.385Z,86.87
2022-11-09T07:30:16.073Z,87.00
2022-11-09T07:35:29.987Z,87.14
2022-11-09T07:38:01.427Z,87.42
2022-11-09T07:40:27.953Z,87.04
2022-11-09T07:42:58.324Z,87.20
2022-11-09T07:45:25.963Z,87.53
2022-11-09T07:48:00.522Z,87.92
2022-11-09T07:50:30.150Z,87.67
2022-11-09T07:52:57.940Z,87.24
2022-11-09T07:55:25.576Z,87.57
2022-11-09T07:57:59.434Z,87.19
2022-11-09T08:00:27.690Z,86.54
2022-11-09T08:02:54.702Z,86.84
2022-11-09T08:05:21.921Z,86.55
2022-11-09T08:07:48.746Z,86.40
2022-11-09T08:10:15.589Z,87.37
2022-11-09T08:12:42.068Z,87.01
2022-11-09T08:15:09.188Z,86.81
2022-11-09T08:17:35.719Z,85.80
2022-11-09T08:20:02.277Z,86.55
2022-11-09T08:22:28.838Z,85.66
2022-11-09T08:24:55.331Z,86.39
2022-11-09T08:27:22.877Z,86.84
2022-11-09T08:29:49.396Z,86.93
2022-11-09T08:32:15.932Z,85.97
2022-11-09T08:34:47.059Z,85.88
2022-11-09T08:37:13.876Z,86.42
2022-11-09T08:39:40.364Z,86.64
2022-11-09T08:42:06.857Z,87.08
2022-11-09T08:44:33.351Z,86.85
2022-11-09T08:46:59.894Z,85.73
2022-11-09T08:49:26.451Z,85.71
2022-11-09T08:51:53.095Z,86.45
2022-11-09T08:54:19.632Z,85.67
2022-11-09T08:56:46.482Z,85.55
2022-11-09T08:59:13.067Z,85.93
2022-11-09T09:01:39.662Z,86.00
2022-11-09T09:04:06.194Z,85.97
2022-11-09T09:06:32.735Z,86.12
2022-11-09T09:08:59.364Z,85.36
2022-11-09T09:11:25.945Z,85.24
2022-11-09T09:13:52.464Z,85.09
2022-11-09T09:16:18.983Z,85.71
2022-11-09T09:18:48.359Z,85.77
2022-11-09T09:21:15.209Z,85.83
2022-11-09T09:23:41.855Z,85.96
2022-11-09T09:26:08.385Z,85.87
2022-11-09T09:28:35.019Z,85.38
2022-11-09T09:31:02.268Z,85.96
2022-11-09T09:33:29.303Z,85.43
2022-11-09T09:35:57.620Z,85.67
2022-11-09T09:38:25.411Z,86.03
2022-11-09T09:40:59.599Z,85.78
2022-11-09T09:43:47.751Z,84.69
2022-11-09T09:46:33.307Z,84.66
2022-11-09T09:49:24.087Z,85.11
2022-11-09T09:52:17.730Z,84.76
2022-11-09T09:55:00.521Z,84.50
2022-11-09T09:57:29.944Z,84.19
2022-11-09T10:00:01.171Z,84.36
2022-11-09T10:02:35.925Z,84.86
2022-11-09T10:05:15.252Z,84.29
2022-11-09T10:07:53.910Z,84.66
2022-11-09T10:10:26.258Z,84.38
2022-11-09T10:13:13.873Z,83.10
2022-11-09T10:15:55.418Z,83.31
2022-11-09T10:18:51.214Z,84.10
2022-11-09T10:21:31.626Z,83.58
2022-11-09T10:24:13.170Z,83.46
2022-11-09T10:26:44.591Z,83.36
2022-11-09T10:29:25.582Z,83.13
2022-11-09T10:31:57.649Z,83.96
2022-11-09T10:34:38.042Z,83.37
2022-11-09T10:37:14.452Z,83.45
2022-11-09T10:39:56.526Z,83.04
2022-11-09T10:42:23.063Z,83.36
2022-11-09T10:44:49.570Z,83.31
2022-11-09T10:47:17.661Z,83.37
2022-11-09T10:49:45.616Z,82.48
2022-11-09T10:52:43.002Z,82.54
2022-11-09T10:55:25.465Z,82.44
2022-11-09T10:58:24.448Z,81.88
2022-11-09T11:01:05.410Z,81.75
2022-11-09T11:03:37.053Z,82.51
2022-11-09T11:06:07.217Z,81.93
2022-11-09T11:08:39.906Z,82.27
2022-11-09T11:11:33.294Z,82.31
2022-11-09T11:14:23.089Z,80.94
2022-11-09T11:16:53.107Z,82.14
2022-11-09T11:19:46.346Z,82.07
2022-11-09T11:22:13.070Z,81.87
2022-11-09T11:24:47.934Z,81.90
2022-11-09T11:27:19.641Z,81.91
2022-11-09T11:30:41.696Z,81.43
2022-11-09T11:33:15.107Z,81.16
2022-11-09T11:36:00.188Z,80.80
2022-11-09T11:38:34.835Z,81.06
2022-11-09T11:41:19.122Z,80.92
2022-11-09T11:44:03.033Z,81.96
2022-11-09T11:46:46.170Z,80.45
2022-11-09T11:49:29.575Z,80.77
2022-11-09T11:52:10.600Z,81.58
2022-11-09T11:54:43.144Z,81.88
2022-11-09T11:57:23.879Z,81.80
2022-11-09T12:00:13.461Z,81.51
2022-11-09T12:03:17.846Z,82.17
2022-11-09T12:06:12.409Z,82.44
2022-11-09T12:08:41.824Z,80.96
2022-11-09T12:11:13.966Z,80.91
2022-11-09T12:14:04.799Z,80.66
2022-11-09T12:16:34.359Z,80.56
2022-11-09T12:19:35.083Z,80.74
2022-11-09T12:22:18.655Z,81.31
2022-11-09T12:25:02.537Z,80.87
2022-11-09T12:27:41.432Z,79.78
2022-11-09T12:30:26.234Z,80.84
2022-11-09T12:32:56.105Z,81.07
2022-11-09T12:35:38.222Z,81.22
2022-11-09T12:38:28.478Z,81.00
2022-11-09T12:41:05.269Z,81.39
2022-11-09T12:44:00.007Z,82.03
2022-11-09T12:46:38.092Z,81.49
2022-11-09T12:49:06.183Z,81.85
2022-11-09T12:51:34.202Z,81.40
2022-11-09T12:54:09.963Z,81.66
2022-11-09T12:56:43.922Z,81.20
2022-11-09T12:59:20.878Z,81.12
2022-11-09T13:01:54.428Z,80.22
2022-11-09T13:04:23.200Z,81.45
2022-11-09T13:07:14.252Z,80.39
2022-11-09T13:09:45.068Z,80.91
2022-11-09T13:12:20.187Z,80.27
2022-11-09T13:14:47.023Z,81.63
2022-11-09T13:17:28.529Z,80.97
2022-11-09T13:19:56.788Z,81.53
2022-11-09T13:22:23.299Z,81.02
2022-11-09T13:25:01.725Z,80.94
2022-11-09T13:27:41.957Z,80.72
2022-11-09T13:30:28.685Z,80.95
2022-11-09T13:33:08.053Z,80.11
2022-11-09T13:35:40.583Z,80.48
2022-11-09T13:38:21.465Z,80.65
2022-11-09T13:40:52.578Z,81.16
2022-11-09T13:43:20.936Z,80.28
2022-11-09T13:45:57.425Z,80.86
2022-11-09T13:48:46.826Z,80.59
2022-11-09T13:51:37.768Z,80.80
2022-11-09T13:54:06.098Z,80.94
2022-11-09T13:56:41.003Z,80.87
2022-11-09T13:59:19.640Z,80.79
2022-11-09T14:01:49.350Z,81.19
2022-11-09T14:04:46.059Z,81.34
2022-11-09T14:07:35.330Z,80.77
2022-11-09T14:10:26.377Z,81.20
2022-11-09T14:13:30.712Z,80.87
2022-11-09T14:16:45.573Z,80.70
2022-11-09T14:19:17.885Z,80.80
2022-11-09T14:21:47.641Z,80.88
2022-11-09T14:24:20.730Z,80.84
2022-11-09T14:27:05.847Z,81.44
2022-11-09T14:29:33.243Z,80.91
2022-11-09T14:32:28.441Z,81.37
2022-11-09T14:35:23.133Z,81.02
2022-11-09T14:37:51.143Z,81.00
2022-11-09T14:40:17.679Z,81.01
2022-11-09T14:42:49.195Z,80.86
2022-11-09T14:45:16.978Z,80.53
2022-11-09T14:47:49.557Z,80.89
2022-11-09T14:50:20.169Z,81.46
2022-11-09T14:52:47.278Z,80.91
2022-11-09T14:55:16.074Z,81.08
2022-11-09T14:57:43.447Z,81.86
2022-11-09T15:00:23.776Z,81.49
2022-11-09T15:02:50.489Z,82.02
2022-11-09T15:05:40.684Z,81.63
2022-11-09T15:08:20.324Z,81.74
2022-11-09T15:10:53.706Z,81.79
2022-11-09T15:13:34.433Z,82.01
2022-11-09T15:16:02.361Z,81.65
2022-11-09T15:18:34.133Z,82.12
2022-11-09T15:21:37.899Z,81.29
2022-11-09T15:24:10.513Z,81.49
2022-11-09T15:26:44.492Z,81.45
2022-11-09T15:29:35.027Z,81.43
2022-11-09T15:32:10.645Z,80.98
2022-11-09T15:35:13.774Z,80.90
2022-11-09T15:37:43.273Z,80.97
2022-11-09T15:40:16.392Z,81.67
2022-11-09T15:42:46.220Z,81.16
2022-11-09T15:45:18.531Z,80.55
2022-11-09T15:47:56.281Z,80.74
2022-11-09T15:50:26.839Z,81.27
2022-11-09T15:52:53.695Z,81.25
2022-11-09T15:55:22.566Z,81.07
2022-11-09T15:57:50.696Z,80.55
2022-11-09T16:00:21.118Z,80.59
2022-11-09T16:02:48.089Z,80.99
2022-11-09T16:05:15.654Z,81.02
2022-11-09T16:07:53.330Z,80.82
2022-11-09T16:10:23.203Z,81.47
2022-11-09T16:12:53.332Z,80.90
2022-11-09T16:15:20.365Z,81.01
2022-11-09T16:17:49.634Z,81.18
2022-11-09T16:20:20.640Z,81.53
2022-11-09T16:22:47.856Z,81.26
2022-11-09T16:25:14.956Z,81.15
2022-11-09T16:27:50.602Z,81.53
2022-11-09T16:30:19.330Z,81.56
2022-11-09T16:32:46.122Z,81.60
2022-11-09T16:35:26.523Z,82.25
2022-11-09T16:37:56.094Z,83.33
2022-11-09T16:40:23.224Z,83.20
2022-11-09T16:42:51.942Z,83.40
2022-11-09T16:45:19.648Z,83.62
2022-11-09T16:47:49.200Z,83.85
2022-11-09T16:50:15.987Z,85.06
2022-11-09T16:52:42.522Z,85.80
2022-11-09T16:55:10.223Z,86.68
2022-11-09T16:57:36.849Z,86.58
2022-11-09T17:00:08.412Z,87.15
2022-11-09T17:02:35.365Z,87.58
2022-11-09T17:05:01.904Z,87.89
2022-11-09T17:07:28.951Z,88.36
2022-11-09T17:09:55.492Z,88.79
2022-11-09T17:12:22.228Z,88.78
2022-11-09T17:14:48.762Z,88.67
2022-11-09T17:17:22.237Z,88.71
2022-11-09T17:19:48.989Z,89.16
2022-11-09T17:22:15.729Z,88.55
2022-11-09T17:24:42.436Z,88.99
2022-11-09T17:27:10.384Z,88.61
2022-11-09T17:29:37.888Z,88.07
2022-11-09T17:32:06.973Z,87.97
2022-11-09T17:34:34.462Z,87.60
2022-11-09T17:37:04.757Z,87.24
2022-11-09T17:39:31.496Z,87.14
2022-11-09T17:41:58.043Z,87.20
2022-11-09T17:44:24.630Z,87.19
2022-11-09T17:46:51.299Z,87.25
2022-11-09T17:49:17.833Z,87.56
2022-11-09T17:51:44.454Z,87.90
2022-11-09T17:54:11.176Z,87.29
2022-11-09T17:56:37.714Z,87.50
2022-11-09T17:59:05.463Z,87.40
2022-11-09T18:01:35.239Z,87.43
2022-11-09T18:04:08.434Z,87.87
2022-11-09T18:06:35.451Z,87.60
2022-11-09T18:11:48.690Z,87.83
2022-11-09T18:14:16.046Z,88.22
2022-11-09T18:16:42.615Z,88.05
2022-11-09T18:19:09.175Z,88.41
2022-11-09T18:21:35.729Z,88.58
2022-11-09T18:24:02.498Z,88.46
2022-11-09T18:26:29.227Z,88.07
2022-11-09T18:28:56.930Z,88.00
2022-11-09T18:31:23.757Z,87.59
2022-11-09T18:33:51.102Z,87.89
2022-11-09T18:36:21.033Z,87.46
2022-11-09T18:38:48.345Z,87.93
2022-11-09T18:41:17.845Z,87.96
2022-11-09T18:43:45.445Z,87.63
2022-11-09T18:46:14.114Z,87.79
2022-11-09T18:48:40.805Z,88.10
2022-11-09T18:51:09.060Z,88.19
2022-11-09T18:53:38.090Z,87.96
2022-11-09T18:56:08.329Z,87.69
2022-11-09T18:58:35.503Z,88.11
2022-11-09T19:01:07.845Z,87.98
2022-11-09T19:03:34.797Z,87.98
2022-11-09T19:06:06.850Z,87.64
2022-11-09T19:08:52.401Z,87.99
2022-11-09T19:11:19.564Z,88.04
2022-11-09T19:13:46.198Z,88.06
2022-11-09T19:16:14.076Z,87.90
2022-11-09T19:18:41.266Z,87.96
2022-11-09T19:21:32.365Z,87.91
2022-11-09T19:23:59.603Z,87.97
2022-11-09T19:26:26.333Z,87.50
2022-11-09T19:28:52.910Z,87.38
2022-11-09T19:31:23.022Z,87.88
2022-11-09T19:33:49.730Z,87.45
2022-11-09T19:36:29.650Z,87.54
2022-11-09T19:38:57.813Z,87.83
2022-11-09T19:41:25.704Z,87.68
2022-11-09T19:43:54.798Z,87.84
2022-11-09T19:46:21.883Z,88.18
2022-11-09T19:48:48.516Z,88.83
2022-11-09T19:51:16.491Z,88.15
2022-11-09T19:53:52.488Z,88.40
2022-11-09T19:56:20.197Z,88.21
2022-11-09T19:58:51.908Z,88.48
2022-11-09T20:01:19.234Z,88.34
2022-11-09T20:03:54.212Z,88.40
2022-11-09T20:06:22.409Z,88.56
2022-11-09T20:08:49.918Z,88.95
2022-11-09T20:11:40.400Z,88.86
2022-11-09T20:14:08.283Z,88.41
2022-11-09T20:16:40.568Z,88.71
2022-11-09T20:19:10.162Z,89.20
2022-11-09T20:21:37.714Z,89.07
2022-11-09T20:24:04.803Z,88.93
2022-11-09T20:26:31.346Z,89.72
2022-11-09T20:28:57.935Z,89.13
2022-11-09T20:31:24.621Z,89.30
2022-11-09T20:33:51.790Z,89.14
2022-11-09T20:36:21.374Z,88.83
2022-11-09T20:38:48.672Z,89.29
2022-11-09T20:41:15.512Z,88.85
2022-11-09T20:43:42.396Z,89.17
2022-11-09T20:46:16.084Z,88.66
2022-11-09T20:48:59.170Z,88.66
2022-11-09T20:51:26.089Z,88.56
2022-11-09T20:53:52.806Z,88.44
2022-11-09T20:56:21.535Z,88.14
2022-11-09T20:58:48.209Z,87.71
2022-11-09T21:01:17.683Z,87.77
2022-11-09T21:03:44.972Z,87.59
2022-11-09T21:06:13.296Z,87.50
2022-11-09T21:08:40.010Z,87.47
2022-11-09T21:11:07.857Z,87.60
2022-11-09T21:13:34.434Z,87.67
2022-11-09T21:16:06.418Z,87.26
2022-11-09T21:18:33.048Z,87.31
2022-11-09T21:21:12.524Z,87.82
2022-11-09T21:23:58.566Z,87.81
2022-11-09T21:26:44.283Z,88.20
2022-11-09T21:29:34.286Z,88.75
2022-11-09T21:32:01.369Z,88.33
2022-11-09T21:34:32.693Z,88.65
2022-11-09T21:37:02.129Z,89.07
2022-11-09T21:39:28.634Z,88.53
2022-11-09T21:41:55.147Z,89.04
2022-11-09T21:44:21.856Z,89.05
2022-11-09T21:46:48.362Z,89.38
2022-11-09T21:49:14.962Z,89.42
2022-11-09T21:51:41.775Z,89.24
2022-11-09T21:54:09.776Z,88.68
2022-11-09T21:56:36.350Z,89.24
2022-11-09T21:59:03.269Z,88.44
2022-11-09T22:01:29.918Z,88.42
2022-11-09T22:03:56.684Z,88.28
2022-11-09T22:06:23.335Z,88.74
2022-11-09T22:08:51.521Z,88.44
2022-11-09T22:11:46.058Z,88.15
2022-11-09T22:14:33.020Z,88.10
2022-11-09T22:16:59.917Z,87.66
2022-11-09T22:19:45.604Z,87.91
2022-11-09T22:22:12.918Z,87.92
2022-11-09T22:24:39.597Z,87.66
2022-11-09T22:27:06.472Z,87.54
2022-11-09T22:29:32.998Z,87.07
2022-11-09T22:31:59.691Z,87.21
2022-11-09T22:34:26.198Z,87.64
2022-11-09T22:36:52.713Z,87.73
2022-11-09T22:39:19.346Z,87.71
2022-11-09T22:41:45.867Z,87.45
2022-11-09T22:44:13.248Z,87.54
2022-11-09T22:46:39.796Z,87.53
2022-11-09T22:49:06.721Z,88.16
2022-11-09T22:51:33.224Z,87.70
2022-11-09T22:53:59.894Z,87.46
2022-11-09T22:56:26.403Z,87.51
2022-11-09T22:58:52.949Z,87.61
2022-11-09T23:01:20.805Z,87.84
2022-11-09T23:03:47.512Z,87.87
2022-11-09T23:06:22.010Z,87.95
2022-11-09T23:08:49.226Z,88.04
2022-11-09T23:11:19.171Z,88.41
2022-11-09T23:13:52.886Z,88.39
2022-11-09T23:16:19.709Z,88.58
2022-11-09T23:18:56.265Z,88.39
2022-11-09T23:21:43.035Z,88.50
2022-11-09T23:24:32.426Z,88.71
2022-11-09T23:26:59.002Z,88.67
2022-11-09T23:29:25.561Z,88.65
2022-11-09T23:31:52.060Z,88.84
2022-11-09T23:34:18.551Z,89.37
2022-11-09T23:36:45.063Z,89.09
2022-11-09T23:39:11.559Z,89.26
2022-11-09T23:41:38.120Z,89.21
2022-11-09T23:44:04.621Z,88.27
2022-11-09T23:46:31.352Z,88.72
2022-11-09T23:48:57.876Z,88.41
2022-11-09T23:51:24.459Z,88.16
2022-11-09T23:53:51.025Z,88.74
2022-11-09T23:56:17.498Z,88.17
2022-11-09T23:58:45.891Z,88.79
